Time;durP1;ratioP1;P1;durP2;ratioP2;P2;SDS_P1;SDS_P2;PMS_P1;PMS_P2;Temp;Humidity;BMP_temperature;BMP_pressure;BME280_temperature;BME280_humidity;BME280_pressure;Samples;Min_cycle;Max_cycle;Signal;HPM_P1;HPM_P2
2022/12/30 00:00:15;;;;;;;11.75;2.83;;;;;;;5.15;100.00;100788.38;1264854;23;20394;-86
2022/12/30 00:00:47;;;;;;;7.30;2.67;;;;;;;5.23;100.00;100788.31;1265109;23;20634;-87
2022/12/30 00:01:21;;;;;;;14.40;2.35;;;;;;;5.27;100.00;100784.28;1265051;23;20323;-86
2022/12/30 00:01:53;;;;;;;12.02;3.80;;;;;;;5.26;100.00;100791.41;1264869;23;20273;-87
2022/12/30 00:02:25;;;;;;;8.05;2.75;;;;;;;5.25;100.00;100789.75;1267518;23;20254;-87
2022/12/30 00:02:57;;;;;;;12.35;3.03;;;;;;;5.32;100.00;100789.03;1264581;23;20297;-87
2022/12/30 00:03:29;;;;;;;10.13;4.07;;;;;;;5.34;100.00;100781.72;1266949;23;20332;-87
2022/12/30 00:04:00;;;;;;;16.90;3.30;;;;;;;5.31;100.00;100792.66;1261206;23;20273;-87
2022/12/30 00:04:32;;;;;;;14.85;3.30;;;;;;;5.32;100.00;100791.66;1267197;23;20325;-86
2022/12/30 00:05:04;;;;;;;11.88;2.92;;;;;;;5.35;100.00;100793.94;1270499;23;20344;-87
2022/12/30 00:05:36;;;;;;;14.15;3.30;;;;;;;5.36;100.00;100785.81;1273349;23;20288;-86
2022/12/30 00:06:14;;;;;;;8.85;2.88;;;;;;;5.38;100.00;100788.28;1271073;23;20269;-87
2022/12/30 00:06:47;;;;;;;14.32;2.90;;;;;;;5.37;100.00;100784.00;1267288;23;20257;-87
2022/12/30 00:07:19;;;;;;;12.13;2.67;;;;;;;5.34;100.00;100787.84;1276883;23;20268;-86
2022/12/30 00:07:50;;;;;;;10.88;2.38;;;;;;;5.33;100.00;100790.66;1267104;23;20316;-87
2022/12/30 00:09:12;;;;;;;13.73;2.75;;;;;;;5.34;100.00;100794.94;1261019;23;20261;-87
2022/12/30 00:09:44;;;;;;;20.15;4.07;;;;;;;5.43;100.00;100796.47;1264664;23;20308;-87
2022/12/30 00:10:16;;;;;;;12.95;3.60;;;;;;;5.36;100.00;100793.75;1265461;23;20326;-87
2022/12/30 00:10:47;;;;;;;9.30;2.63;;;;;;;5.36;100.00;100791.09;1270611;23;20367;-87
2022/12/30 00:11:24;;;;;;;15.27;2.58;;;;;;;5.41;100.00;100795.84;1273122;23;20514;-87
2022/12/30 00:33:06;;;;;;;18.42;2.90;;;;;;;5.43;100.00;100786.72;1271246;23;20429;-86
2022/12/30 00:33:22;;;;;;;4.47;1.70;;;;;;;5.24;100.00;100813.72;1277296;23;20272;-87
2022/12/30 00:33:58;;;;;;;15.65;2.97;;;;;;;5.21;100.00;100814.91;1267776;23;20265;-87
2022/12/30 00:34:32;;;;;;;9.23;3.10;;;;;;;5.21;100.00;100806.97;1271134;23;20647;-87
2022/12/30 00:35:04;;;;;;;12.15;2.35;;;;;;;5.29;100.00;100811.34;1270974;23;20309;-87
2022/12/30 00:35:37;;;;;;;11.95;2.35;;;;;;;5.30;100.00;100809.50;1271361;23;20383;-87
2022/12/30 00:36:09;;;;;;;13.55;2.60;;;;;;;5.16;100.00;100801.38;1270782;23;20705;-87
2022/12/30 00:36:41;;;;;;;12.73;2.20;;;;;;;5.15;100.00;100812.94;1266911;23;20249;-87
2022/12/30 00:37:12;;;;;;;9.57;3.50;;;;;;;5.21;100.00;100809.63;1265500;23;20724;-87
2022/12/30 00:37:44;;;;;;;9.77;1.80;;;;;;;5.21;100.00;100814.06;1265567;23;20305;-87
2022/12/30 00:38:22;;;;;;;7.18;2.05;;;;;;;5.16;100.00;100809.31;1265350;23;20284;-87
2022/12/30 00:38:54;;;;;;;13.30;2.60;;;;;;;5.19;100.00;100803.66;1270635;23;20400;-87
2022/12/30 00:39:26;;;;;;;11.43;2.78;;;;;;;5.14;100.00;100818.41;1270889;23;20579;-87
2022/12/30 00:39:57;;;;;;;14.23;2.47;;;;;;;5.11;100.00;100816.97;1265043;23;20293;-87
2022/12/30 00:40:29;;;;;;;9.60;2.35;;;;;;;5.12;100.00;100812.50;1270893;23;20343;-88
2022/12/30 00:43:30;;;;;;;9.98;2.35;;;;;;;5.12;100.00;100815.13;1270790;23;20272;-87
2022/12/30 00:44:02;;;;;;;8.13;3.53;;;;;;;5.12;100.00;100813.31;1260929;23;20787;-87
2022/12/30 00:44:33;;;;;;;10.40;3.13;;;;;;;5.17;100.00;100820.69;1265065;23;20634;-87
2022/12/30 00:45:05;;;;;;;13.13;3.13;;;;;;;5.14;100.00;100813.13;1271844;23;20277;-87
2022/12/30 00:45:39;;;;;;;9.18;2.10;;;;;;;5.09;100.00;100820.78;1271198;23;20275;-87
2022/12/30 00:46:11;;;;;;;8.50;2.35;;;;;;;5.08;100.00;100813.88;1271333;23;20273;-87
2022/12/30 00:46:43;;;;;;;18.75;4.47;;;;;;;5.14;100.00;100819.25;1265135;23;20281;-87
2022/12/30 00:47:15;;;;;;;11.32;2.78;;;;;;;5.06;100.00;100811.41;1265604;23;20266;-87
2022/12/30 00:47:47;;;;;;;12.82;2.75;;;;;;;5.04;100.00;100813.41;1271578;23;20270;-87
2022/12/30 00:56:44;;;;;;;10.35;2.63;;;;;;;4.94;100.00;100832.16;1277314;23;20283;-87
2022/12/30 00:57:16;;;;;;;8.60;3.22;;;;;;;4.95;100.00;100835.63;1261629;23;20269;-87
2022/12/30 00:57:47;;;;;;;15.93;2.00;;;;;;;4.84;100.00;100836.84;1267325;23;20332;-87
2022/12/30 00:58:19;;;;;;;9.85;2.15;;;;;;;4.81;100.00;100844.31;1265831;23;20328;-87
2022/12/30 00:58:51;;;;;;;9.15;2.28;;;;;;;4.81;100.00;100839.84;1259139;23;20297;-87
2022/12/30 00:59:22;;;;;;;8.32;2.20;;;;;;;4.78;100.00;100832.28;1267514;23;20285;-87
2022/12/30 00:59:54;;;;;;;10.50;1.92;;;;;;;4.74;100.00;100830.19;1271556;23;20359;-87
2022/12/30 01:00:26;;;;;;;12.23;3.45;;;;;;;4.79;100.00;100838.41;1259465;23;20636;-87
2022/12/30 01:00:57;;;;;;;12.93;2.25;;;;;;;4.82;100.00;100836.22;1261311;23;20801;-87
2022/12/30 01:01:31;;;;;;;8.43;2.35;;;;;;;4.80;100.00;100834.75;1261667;23;20265;-87
2022/12/30 01:02:03;;;;;;;12.93;3.85;;;;;;;4.82;100.00;100840.66;1265680;23;20275;-87
2022/12/30 01:02:35;;;;;;;8.82;2.55;;;;;;;4.80;100.00;100842.66;1264806;23;20835;-87
2022/12/30 01:03:06;;;;;;;6.95;2.25;;;;;;;4.81;100.00;100836.41;1267744;23;20258;-87
2022/12/30 01:03:38;;;;;;;11.02;2.13;;;;;;;4.82;100.00;100836.22;1270753;23;20808;-87
2022/12/30 01:04:10;;;;;;;7.05;2.33;;;;;;;4.79;100.00;100836.56;1273138;23;20264;-87
2022/12/30 01:04:42;;;;;;;13.63;3.13;;;;;;;4.79;100.00;100835.75;1259556;23;20266;-87
2022/12/30 01:05:14;;;;;;;10.65;2.28;;;;;;;4.85;100.00;100841.13;1267606;23;20260;-87
2022/12/30 01:05:45;;;;;;;8.13;2.10;;;;;;;4.82;100.00;100835.41;1271179;23;20264;-87
2022/12/30 01:06:17;;;;;;;12.32;2.90;;;;;;;4.81;100.00;100839.03;1271205;23;20580;-87
2022/12/30 01:06:48;;;;;;;14.18;4.00;;;;;;;4.82;100.00;100841.50;1259339;23;20274;-87
2022/12/30 01:07:20;;;;;;;10.65;2.35;;;;;;;4.83;100.00;100842.31;1265343;23;20269;-87
2022/12/30 01:07:51;;;;;;;14.85;2.55;;;;;;;4.88;100.00;100847.88;1265291;23;20619;-87
2022/12/30 01:08:23;;;;;;;8.07;2.05;;;;;;;4.87;100.00;100844.41;1259109;23;20270;-87
2022/12/30 01:08:54;;;;;;;13.38;2.42;;;;;;;4.89;100.00;100849.50;1255300;23;20266;-87
2022/12/30 01:09:26;;;;;;;10.23;2.88;;;;;;;4.85;100.00;100849.06;1261147;23;20361;-87
2022/12/30 01:09:58;;;;;;;16.08;2.53;;;;;;;4.84;100.00;100838.66;1267719;23;20301;-87
2022/12/30 01:10:29;;;;;;;8.27;1.80;;;;;;;4.86;100.00;100847.22;1271987;23;20261;-87
2022/12/30 01:11:08;;;;;;;18.02;2.47;;;;;;;4.84;100.00;100846.59;1273421;23;20245;-87
2022/12/30 01:11:40;;;;;;;5.85;1.70;;;;;;;4.84;100.00;100843.94;1269594;23;20281;-87
2022/12/30 01:12:11;;;;;;;8.80;2.45;;;;;;;4.81;100.00;100850.41;1271539;23;20323;-87
2022/12/30 01:12:43;;;;;;;13.25;3.05;;;;;;;4.88;100.00;100855.78;1265290;23;20305;-87
2022/12/30 01:13:15;;;;;;;10.95;2.35;;;;;;;4.86;100.00;100850.69;1261239;23;20611;-87
2022/12/30 01:13:47;;;;;;;12.48;2.28;;;;;;;4.90;100.00;100859.06;1261616;23;20256;-87
2022/12/30 01:14:19;;;;;;;8.75;2.47;;;;;;;4.83;100.00;100856.31;1265171;23;20324;-87
2022/12/30 01:14:52;;;;;;;10.73;4.40;;;;;;;4.84;100.00;100854.50;1261039;23;20726;-87
2022/12/30 01:15:24;;;;;;;7.45;2.38;;;;;;;4.81;100.00;100849.59;1259674;23;20308;-87
2022/12/30 01:15:55;;;;;;;6.95;2.10;;;;;;;4.74;100.00;100859.22;1267489;23;20254;-87
2022/12/30 01:16:27;;;;;;;14.45;3.55;;;;;;;4.77;100.00;100853.59;1271248;23;20269;-87
2022/12/30 01:16:59;;;;;;;9.60;2.72;;;;;;;4.73;100.00;100855.75;1268120;23;20332;-87
2022/12/30 01:17:32;;;;;;;15.10;4.18;;;;;;;4.82;100.00;100857.31;1272688;23;20269;-87
2022/12/30 01:18:03;;;;;;;11.07;2.45;;;;;;;4.79;100.00;100851.59;1264606;23;20268;-87
2022/12/30 01:18:35;;;;;;;11.93;3.63;;;;;;;4.81;100.00;100860.16;1273636;23;20261;-87
2022/12/30 01:19:07;;;;;;;8.95;2.10;;;;;;;4.79;100.00;100856.88;1271637;23;20297;-87
2022/12/30 01:19:39;;;;;;;4.20;1.90;;;;;;;4.81;100.00;100860.16;1259137;23;20274;-87
2022/12/30 01:20:10;;;;;;;5.93;2.25;;;;;;;4.79;100.00;100860.31;1267227;23;20384;-87
2022/12/30 01:20:42;;;;;;;9.45;3.13;;;;;;;4.80;100.00;100864.59;1271901;23;20332;-87
2022/12/30 01:21:13;;;;;;;12.07;3.13;;;;;;;4.78;100.00;100857.88;1271269;23;20276;-87
2022/12/30 01:21:45;;;;;;;13.60;3.28;;;;;;;4.82;100.00;100870.53;1253508;23;20326;-86
2022/12/30 01:22:17;;;;;;;9.32;3.65;;;;;;;4.80;100.00;100863.78;1261689;23;20258;-87
2022/12/30 01:22:48;;;;;;;11.52;3.53;;;;;;;4.82;100.00;100867.06;1259140;23;20273;-87
2022/12/30 01:23:20;;;;;;;13.18;4.07;;;;;;;4.82;100.00;100873.16;1261918;23;20265;-87
2022/12/30 01:23:51;;;;;;;16.00;2.90;;;;;;;4.84;100.00;100870.34;1271332;23;20272;-87
2022/12/30 01:24:23;;;;;;;13.02;3.03;;;;;;;4.83;100.00;100863.41;1273346;23;20257;-87
2022/12/30 01:24:55;;;;;;;5.93;2.13;;;;;;;4.83;100.00;100866.88;1271509;23;20621;-87
2022/12/30 01:25:26;;;;;;;6.68;2.97;;;;;;;4.84;100.00;100872.97;1265481;23;20265;-87
2022/12/30 01:26:05;;;;;;;16.10;5.60;;;;;;;4.87;100.00;100867.34;1265072;23;20654;-87
2022/12/30 01:26:36;;;;;;;9.90;2.95;;;;;;;4.84;100.00;100867.69;1259246;23;20296;-87
2022/12/30 01:27:08;;;;;;;15.63;2.78;;;;;;;4.81;100.00;100868.06;1259357;23;20270;-87
2022/12/30 01:27:40;;;;;;;7.32;2.22;;;;;;;4.77;100.00;100864.13;1259376;23;20276;-87
2022/12/30 01:28:11;;;;;;;15.07;3.85;;;;;;;4.75;100.00;100855.59;1259336;23;20270;-87
2022/12/30 01:28:43;;;;;;;4.28;2.17;;;;;;;4.74;100.00;100853.94;1258943;23;20289;-87
2022/12/30 01:29:27;;;;;;;13.35;3.13;;;;;;;4.72;100.00;100863.84;1259307;23;20274;-87
2022/12/30 01:29:59;;;;;;;12.70;3.20;;;;;;;4.72;100.00;100864.69;1253333;23;20271;-87
2022/12/30 01:30:30;;;;;;;10.02;2.80;;;;;;;4.80;100.00;100861.16;1253362;23;20267;-87
2022/12/30 01:31:07;;;;;;;7.80;3.53;;;;;;;4.79;100.00;100867.41;1261332;23;20258;-87
2022/12/30 01:31:39;;;;;;;10.05;2.40;;;;;;;4.78;100.00;100865.78;1261300;23;20262;-87
2022/12/30 01:32:16;;;;;;;11.23;2.70;;;;;;;4.78;100.00;100863.13;1259352;23;20262;-87
2022/12/30 01:32:48;;;;;;;13.65;2.78;;;;;;;4.76;100.00;100863.31;1259352;23;20382;-87
2022/12/30 01:33:19;;;;;;;6.13;2.42;;;;;;;4.74;100.00;100864.50;1259356;23;20377;-87
2022/12/30 01:33:51;;;;;;;11.52;2.17;;;;;;;4.71;100.00;100872.78;1253427;23;20275;-87
2022/12/30 01:34:23;;;;;;;4.50;1.98;;;;;;;4.71;100.00;100864.84;1265223;23;20276;-87
2022/12/30 01:34:55;;;;;;;5.55;1.98;;;;;;;4.71;100.00;100864.84;1265527;23;20270;-87
2022/12/30 01:35:27;;;;;;;15.10;3.30;;;;;;;4.70;100.00;100866.69;1265169;23;20272;-87
2022/12/30 01:35:59;;;;;;;12.70;3.65;;;;;;;4.70;100.00;100871.94;1261180;23;20306;-87
2022/12/30 01:36:30;;;;;;;6.18;2.80;;;;;;;4.72;100.00;100866.50;1255724;23;20255;-87
2022/12/30 01:37:02;;;;;;;16.33;3.25;;;;;;;4.69;100.00;100866.84;1253185;23;20275;-87
2022/12/30 01:37:33;;;;;;;10.45;2.30;;;;;;;4.67;100.00;100874.94;1258782;23;20278;-87
2022/12/30 01:38:05;;;;;;;7.63;2.50;;;;;;;4.75;100.00;100866.13;1255358;23;20262;-87
2022/12/30 01:38:36;;;;;;;18.20;5.43;;;;;;;4.69;100.00;100864.22;1271172;23;20301;-87
2022/12/30 01:39:08;;;;;;;11.63;2.28;;;;;;;4.67;100.00;100864.41;1259547;23;20571;-87
2022/12/30 01:39:40;;;;;;;5.97;1.92;;;;;;;4.64;100.00;100865.53;1265686;23;20277;-87
2022/12/30 01:40:11;;;;;;;10.20;2.67;;;;;;;4.64;100.00;100865.53;1267650;23;20659;-87
2022/12/30 01:40:43;;;;;;;14.70;3.58;;;;;;;4.61;100.00;100871.16;1253120;23;20271;-87
2022/12/30 01:41:15;;;;;;;10.13;2.65;;;;;;;4.59;100.00;100865.25;1265409;23;20360;-87
2022/12/30 01:41:47;;;;;;;10.73;2.22;;;;;;;4.60;100.00;100864.25;1265345;23;20273;-87
2022/12/30 01:42:21;;;;;;;10.23;2.15;;;;;;;4.60;100.00;100866.91;1261013;23;20254;-87
2022/12/30 01:42:53;;;;;;;12.15;3.85;;;;;;;4.56;100.00;100862.97;1267602;23;20254;-87
2022/12/30 01:43:41;;;;;;;7.53;2.40;;;;;;;4.51;100.00;100865.31;1260591;23;20600;-87
2022/12/30 01:44:56;;;;;;;13.32;2.50;;;;;;;4.52;100.00;100866.97;1259146;23;20289;-87
2022/12/30 01:45:30;;;;;;;14.20;3.55;;;;;;;4.50;100.00;100874.22;1279567;23;20712;-87
2022/12/30 01:46:03;;;;;;;14.15;2.85;;;;;;;4.49;100.00;100871.78;1280885;23;20261;-87
2022/12/30 01:46:35;;;;;;;13.80;2.83;;;;;;;4.46;100.00;100866.84;1277831;23;20355;-87
2022/12/30 01:47:06;;;;;;;11.45;2.20;;;;;;;4.48;100.00;100876.22;1273456;23;20252;-87
2022/12/30 01:47:41;;;;;;;10.13;2.88;;;;;;;4.50;100.00;100879.50;1273754;23;20328;-87
2022/12/30 01:48:12;;;;;;;16.35;3.38;;;;;;;4.46;100.00;100872.94;1267917;23;20322;-87
2022/12/30 01:48:45;;;;;;;14.95;2.88;;;;;;;4.47;100.00;100873.75;1272435;23;20272;-87
2022/12/30 01:49:16;;;;;;;11.38;2.33;;;;;;;4.53;100.00;100875.69;1271388;23;20420;-87
2022/12/30 01:49:51;;;;;;;11.48;2.38;;;;;;;4.55;100.00;100865.78;1279698;23;20267;-87
2022/12/30 01:50:26;;;;;;;21.55;3.30;;;;;;;4.52;100.00;100872.25;1277829;23;20275;-87
2022/12/30 01:51:00;;;;;;;8.18;2.85;;;;;;;4.55;100.00;100871.06;1270717;23;20265;-87
2022/12/30 01:51:33;;;;;;;10.63;2.38;;;;;;;4.51;100.00;100875.88;1271161;23;20604;-87
2022/12/30 01:52:05;;;;;;;11.90;2.78;;;;;;;4.52;100.00;100874.88;1265392;23;20274;-87
2022/12/30 01:52:47;;;;;;;20.08;4.07;;;;;;;4.51;100.00;100870.59;1261629;23;20305;-87
2022/12/30 01:53:22;;;;;;;18.45;2.78;;;;;;;4.52;100.00;100869.59;1259412;23;20278;-87
2022/12/30 01:53:54;;;;;;;9.32;3.03;;;;;;;4.50;100.00;100868.13;1259255;23;20314;-87
2022/12/30 01:54:26;;;;;;;14.02;3.58;;;;;;;4.58;100.00;100868.06;1259436;23;20274;-87
2022/12/30 01:55:02;;;;;;;13.05;2.30;;;;;;;4.51;100.00;100872.41;1271100;23;20590;-88
2022/12/30 01:55:35;;;;;;;13.05;3.22;;;;;;;4.50;100.00;100876.88;1273331;23;20260;-87
2022/12/30 01:56:13;;;;;;;10.35;2.72;;;;;;;4.44;100.00;100869.66;1265080;23;20372;-87
2022/12/30 01:56:44;;;;;;;12.20;3.10;;;;;;;4.43;100.00;100869.84;1256480;23;20275;-87
2022/12/30 01:57:16;;;;;;;11.32;2.30;;;;;;;4.42;100.00;100871.66;1257619;23;20271;-87
2022/12/30 01:57:50;;;;;;;9.05;2.50;;;;;;;4.46;100.00;100870.31;1258613;23;20270;-87
2022/12/30 01:58:29;;;;;;;12.75;2.10;;;;;;;4.42;100.00;100865.56;1261437;23;20639;-87
2022/12/30 01:59:12;;;;;;;8.73;3.33;;;;;;;4.47;100.00;100863.22;1259511;23;20607;-86
2022/12/30 01:59:43;;;;;;;15.25;3.10;;;;;;;4.44;100.00;100869.66;1255514;23;20274;-86
2022/12/30 02:00:15;;;;;;;7.57;2.35;;;;;;;4.46;100.00;100869.50;1265310;23;20278;-86
2022/12/30 02:00:47;;;;;;;16.90;2.45;;;;;;;4.45;100.00;100875.75;1259552;23;20297;-86
2022/12/30 02:01:19;;;;;;;11.77;2.60;;;;;;;4.46;100.00;100866.84;1259986;23;20270;-89
2022/12/30 02:01:50;;;;;;;17.15;3.10;;;;;;;4.50;100.00;100874.22;1261848;23;20258;-87
2022/12/30 02:02:22;;;;;;;13.50;3.58;;;;;;;4.49;100.00;100864.69;1273680;23;20268;-88
2022/12/30 02:02:56;;;;;;;15.38;3.15;;;;;;;4.50;100.00;100871.59;1259228;23;20266;-86
2022/12/30 02:03:38;;;;;;;5.65;3.13;;;;;;;4.46;100.00;100874.75;1261421;23;20254;-86
2022/12/30 02:04:14;;;;;;;17.38;2.60;;;;;;;4.37;100.00;100879.25;1265703;23;20645;-86
2022/12/30 02:04:45;;;;;;;10.27;2.83;;;;;;;4.39;100.00;100876.47;1259245;23;20022;-87
2022/12/30 02:05:20;;;;;;;8.35;2.22;;;;;;;4.39;100.00;100881.75;1270991;23;20586;-87
2022/12/30 02:05:52;;;;;;;10.98;2.22;;;;;;;4.42;100.00;100876.94;1265784;23;20273;-87
2022/12/30 02:06:31;;;;;;;19.58;3.50;;;;;;;4.43;100.00;100883.84;1261029;23;20298;-87
2022/12/30 02:07:22;;;;;;;11.43;3.20;;;;;;;4.45;100.00;100879.22;1261164;23;20261;-87
2022/12/30 02:08:13;;;;;;;10.95;2.72;;;;;;;4.43;100.00;100883.84;1259453;23;20278;-87
2022/12/30 02:08:45;;;;;;;7.88;2.38;;;;;;;4.44;100.00;100880.22;1269632;23;20136;-87
2022/12/30 02:09:17;;;;;;;10.35;2.25;;;;;;;4.47;100.00;100881.69;1264434;23;20466;-87
2022/12/30 02:09:50;;;;;;;7.63;2.13;;;;;;;4.41;100.00;100880.56;1270680;23;20339;-87
2022/12/30 02:10:21;;;;;;;14.23;3.28;;;;;;;4.43;100.00;100883.03;1266519;23;20261;-87
2022/12/30 02:10:54;;;;;;;14.75;2.22;;;;;;;4.46;100.00;100882.69;1277683;23;20268;-87
2022/12/30 02:11:26;;;;;;;7.10;1.80;;;;;;;4.44;100.00;100890.75;1277250;23;20324;-87
2022/12/30 02:11:59;;;;;;;11.48;2.38;;;;;;;4.42;100.00;100887.47;1277996;23;20283;-87
2022/12/30 02:12:30;;;;;;;12.00;2.50;;;;;;;4.47;100.00;100890.41;1271504;23;20288;-87
2022/12/30 02:13:02;;;;;;;11.65;3.35;;;;;;;4.45;100.00;100891.59;1265407;23;20266;-87
2022/12/30 02:13:33;;;;;;;11.18;2.85;;;;;;;4.48;100.00;100880.69;1271090;23;20276;-86
2022/12/30 02:14:05;;;;;;;11.13;2.60;;;;;;;4.43;100.00;100883.03;1271467;23;20272;-87
2022/12/30 02:14:41;;;;;;;14.48;3.00;;;;;;;4.41;100.00;100877.94;1265538;23;20265;-87
2022/12/30 02:15:14;;;;;;;10.32;2.55;;;;;;;4.31;100.00;100882.59;1260818;23;20667;-87
2022/12/30 02:15:55;;;;;;;14.30;3.22;;;;;;;4.34;100.00;100874.31;1265015;23;20517;-87
2022/12/30 02:16:32;;;;;;;8.93;2.92;;;;;;;4.35;100.00;100882.06;1264841;23;20821;-87
2022/12/30 02:17:21;;;;;;;9.00;2.40;;;;;;;4.36;100.00;100882.88;1264836;23;20265;-87
2022/12/30 02:18:09;;;;;;;13.13;2.80;;;;;;;4.34;100.00;100874.31;1259508;23;20385;-87
2022/12/30 02:18:56;;;;;;;10.32;2.67;;;;;;;4.34;100.00;100879.59;1266635;23;20679;-87
2022/12/30 02:19:59;;;;;;;12.10;2.90;;;;;;;4.30;100.00;100878.31;1271465;23;20721;-87
2022/12/30 02:21:02;;;;;;;14.50;2.13;;;;;;;4.37;100.00;100881.06;1276843;23;20653;-86
2022/12/30 02:21:40;;;;;;;8.27;2.00;;;;;;;4.37;100.00;100886.34;1277160;23;20286;-86
2022/12/30 02:22:17;;;;;;;21.42;3.67;;;;;;;4.34;100.00;100885.69;1279500;23;20584;-86
2022/12/30 02:23:04;;;;;;;10.55;2.70;;;;;;;4.26;100.00;100883.13;1271198;23;20300;-87
2022/12/30 02:23:48;;;;;;;13.27;3.75;;;;;;;4.39;100.00;100879.94;1277474;23;20330;-86
2022/12/30 02:24:22;;;;;;;7.35;2.30;;;;;;;4.42;100.00;100884.84;1277328;23;20640;-86
2022/12/30 02:25:12;;;;;;;11.70;2.85;;;;;;;4.44;100.00;100880.22;1271018;23;20645;-87
2022/12/30 02:26:02;;;;;;;10.25;2.17;;;;;;;4.43;100.00;100873.31;1265569;23;20583;-86
2022/12/30 02:26:52;;;;;;;16.00;3.42;;;;;;;4.42;100.00;100876.13;1270150;23;20254;-86
2022/12/30 02:27:26;;;;;;;8.07;2.17;;;;;;;4.40;100.00;100876.28;1274745;23;20324;-86
2022/12/30 02:28:16;;;;;;;15.75;2.90;;;;;;;4.45;100.00;100881.03;1283854;23;20275;-86
2022/12/30 02:29:10;;;;;;;12.13;3.20;;;;;;;4.45;100.00;100876.59;1277388;23;20272;-86
2022/12/30 02:30:00;;;;;;;9.20;2.33;;;;;;;4.40;100.00;100878.94;1280375;23;20327;-87
2022/12/30 02:30:56;;;;;;;10.07;2.15;;;;;;;4.40;100.00;100875.47;1276378;23;20257;-86
2022/12/30 02:31:49;;;;;;;9.13;1.80;;;;;;;4.44;100.00;100874.94;1268420;23;20316;-86
2022/12/30 02:32:46;;;;;;;14.65;2.47;;;;;;;4.41;100.00;100875.28;1274127;23;20269;-86
2022/12/30 02:33:28;;;;;;;7.43;2.00;;;;;;;4.43;100.00;100878.56;1244180;23;20283;-86
2022/12/30 02:34:40;;;;;;;14.82;2.67;;;;;;;4.38;100.00;100875.63;1251042;23;20268;-86
2022/12/30 02:35:25;;;;;;;10.15;2.90;;;;;;;4.41;100.00;100880.56;1269706;23;20300;-87
2022/12/30 02:36:17;;;;;;;7.45;1.98;;;;;;;4.36;100.00;100872.34;1276449;23;20279;-87
2022/12/30 02:37:23;;;;;;;11.13;3.22;;;;;;;4.31;100.00;100875.50;1281976;23;20248;-87
2022/12/30 02:38:18;;;;;;;12.27;2.13;;;;;;;4.25;100.00;100875.38;1269828;23;20583;-87
2022/12/30 02:39:05;;;;;;;6.22;1.75;;;;;;;4.25;100.00;100876.22;1264993;23;20265;-86
2022/12/30 02:40:01;;;;;;;12.35;3.38;;;;;;;4.30;100.00;100878.31;1269355;23;20560;-87
2022/12/30 02:44:56;;;;;;;8.18;1.63;;;;;;;4.29;100.00;100871.41;1281660;23;20272;-86
2022/12/30 02:45:55;;;;;;;8.85;2.40;;;;;;;4.26;100.00;100869.94;1270484;23;20273;-87
2022/12/30 02:46:32;;;;;;;8.98;1.95;;;;;;;4.22;100.00;100873.09;1262540;23;20622;-86
2022/12/30 02:47:13;;;;;;;15.90;3.13;;;;;;;4.27;100.00;100870.75;1259842;23;20270;-87
2022/12/30 02:47:51;;;;;;;9.50;2.45;;;;;;;4.29;100.00;100871.41;1261103;23;20261;-86
2022/12/30 02:48:27;;;;;;;9.85;2.25;;;;;;;4.26;100.00;100875.22;1260832;23;20258;-87
2022/12/30 02:48:59;;;;;;;6.85;2.13;;;;;;;4.23;100.00;100870.28;1267191;23;20404;-86
2022/12/30 02:49:33;;;;;;;6.38;2.92;;;;;;;4.20;100.00;100872.44;1259139;23;20274;-86
2022/12/30 02:52:18;;;;;;;5.78;2.20;;;;;;;4.17;100.00;100867.53;1277057;23;20720;-87
2022/12/30 02:52:50;;;;;;;9.80;2.67;;;;;;;4.20;100.00;100867.19;1271319;23;20280;-86
2022/12/30 02:53:27;;;;;;;8.63;1.80;;;;;;;4.19;100.00;100862.91;1267502;23;20264;-87
2022/12/30 02:53:58;;;;;;;10.55;2.17;;;;;;;4.14;100.00;100868.69;1265386;23;20265;-86
2022/12/30 02:54:30;;;;;;;11.32;2.10;;;;;;;4.15;100.00;100864.25;1271198;23;20296;-87
2022/12/30 02:55:03;;;;;;;12.95;1.98;;;;;;;4.15;100.00;100867.72;1264880;23;20317;-87
2022/12/30 02:55:34;;;;;;;11.55;2.40;;;;;;;4.11;100.00;100862.94;1271521;23;20268;-87
2022/12/30 02:56:07;;;;;;;7.82;2.30;;;;;;;4.11;100.00;100871.69;1265686;23;20273;-87
2022/12/30 02:56:52;;;;;;;7.45;1.88;;;;;;;4.09;100.00;100876.28;1262105;23;20273;-87
2022/12/30 02:57:31;;;;;;;10.65;2.60;;;;;;;4.17;100.00;100860.44;1271283;23;20970;-87
2022/12/30 02:58:03;;;;;;;12.45;1.98;;;;;;;4.17;100.00;100862.25;1265534;23;20277;-86
2022/12/30 02:58:38;;;;;;;15.13;2.33;;;;;;;4.17;100.00;100862.25;1258891;23;20758;-86
2022/12/30 03:04:21;;;;;;;9.43;1.90;;;;;;;4.31;100.00;100872.03;1283793;23;20013;-86
2022/12/30 03:05:07;;;;;;;10.90;2.08;;;;;;;4.30;100.00;100867.78;1274887;23;20272;-86
2022/12/30 03:06:05;;;;;;;9.25;2.40;;;;;;;4.32;100.00;100865.78;1267364;23;20288;-86
2022/12/30 03:06:57;;;;;;;12.93;2.67;;;;;;;4.40;100.00;100867.56;1255700;23;20279;-86
2022/12/30 03:07:48;;;;;;;9.02;3.28;;;;;;;4.33;100.00;100867.41;1265205;23;20277;-87
2022/12/30 03:08:27;;;;;;;10.35;2.08;;;;;;;4.32;100.00;100871.06;1266988;23;20277;-86
2022/12/30 03:09:15;;;;;;;18.40;1.77;;;;;;;4.35;100.00;100860.16;1265153;23;20029;-86
2022/12/30 03:11:16;;;;;;;4.45;1.75;;;;;;;4.26;100.00;100855.94;1265914;23;20297;-87
2022/12/30 03:12:21;;;;;;;9.68;2.70;;;;;;;4.28;100.00;100851.31;1264616;23;20704;-86
2022/12/30 03:13:14;;;;;;;6.68;1.83;;;;;;;4.17;100.00;100851.72;1260209;23;20250;-87
2022/12/30 03:13:56;;;;;;;10.50;1.85;;;;;;;4.18;100.00;100853.34;1258480;23;20726;-87
2022/12/30 03:14:35;;;;;;;9.13;2.78;;;;;;;4.15;100.00;100845.81;1256186;23;20739;-86
2022/12/30 03:15:14;;;;;;;12.55;3.40;;;;;;;4.22;100.00;100844.09;1253491;23;20274;-86
2022/12/30 03:15:51;;;;;;;16.33;5.25;;;;;;;4.21;100.00;100847.72;1255374;23;20595;-86
2022/12/30 03:16:34;;;;;;;9.00;2.80;;;;;;;4.19;100.00;100849.72;1261296;23;20305;-86
2022/12/30 03:17:13;;;;;;;8.07;2.47;;;;;;;4.18;100.00;100850.72;1265155;23;20277;-86
2022/12/30 03:17:45;;;;;;;15.80;1.95;;;;;;;4.23;100.00;100851.00;1272715;23;20284;-86
2022/12/30 03:18:18;;;;;;;8.52;2.40;;;;;;;4.25;100.00;100852.47;1267262;23;20261;-86
2022/12/30 03:18:50;;;;;;;7.20;1.95;;;;;;;4.22;100.00;100839.66;1264102;23;20321;-87
2022/12/30 03:19:23;;;;;;;12.75;2.88;;;;;;;4.22;100.00;100844.09;1266127;23;20301;-87
2022/12/30 03:19:59;;;;;;;17.40;2.47;;;;;;;4.23;100.00;100846.56;1264846;23;20265;-86
2022/12/30 03:20:31;;;;;;;13.75;3.13;;;;;;;4.25;100.00;100843.75;1267097;23;20257;-87
2022/12/30 03:21:04;;;;;;;13.25;2.13;;;;;;;4.24;100.00;100842.09;1271356;23;20272;-87
2022/12/30 03:21:39;;;;;;;13.50;2.67;;;;;;;4.25;100.00;100849.84;1260805;23;20281;-86
2022/12/30 03:27:03;;;;;;;9.38;3.20;;;;;;;4.25;100.00;100849.84;1265049;23;20262;-86
2022/12/30 03:27:22;;;;;;;9.15;2.30;;;;;;;4.18;100.00;100848.09;1271316;23;20276;-87
2022/12/30 03:27:56;;;;;;;16.75;2.95;;;;;;;4.35;100.00;100850.41;1253141;23;20030;-86
2022/12/30 03:28:28;;;;;;;18.70;2.38;;;;;;;4.31;100.00;100854.41;1259068;23;20332;-86
2022/12/30 03:29:00;;;;;;;8.05;2.38;;;;;;;4.24;100.00;100856.09;1255504;23;20254;-87
2022/12/30 03:29:40;;;;;;;14.85;3.97;;;;;;;4.26;100.00;100855.94;1265158;23;20268;-86
2022/12/30 03:30:12;;;;;;;6.57;1.48;;;;;;;4.32;100.00;100857.88;1271415;23;20276;-87
2022/12/30 03:30:50;;;;;;;17.40;3.47;;;;;;;4.30;100.00;100851.94;1270998;23;20787;-87
2022/12/30 03:31:22;;;;;;;12.32;2.95;;;;;;;4.28;100.00;100848.66;1259076;23;20325;-87
2022/12/30 03:31:54;;;;;;;19.73;2.60;;;;;;;4.29;100.00;100847.66;1254255;23;20263;-86
2022/12/30 03:32:27;;;;;;;10.10;2.33;;;;;;;4.29;100.00;100852.94;1265356;23;20280;-86
2022/12/30 03:32:58;;;;;;;13.15;4.53;;;;;;;4.34;100.00;100847.97;1267295;23;20264;-86
2022/12/30 03:33:31;;;;;;;13.40;3.42;;;;;;;4.29;100.00;100855.59;1265044;23;20272;-87
2022/12/30 03:34:02;;;;;;;13.30;1.88;;;;;;;4.28;100.00;100849.50;1259026;23;20421;-87
2022/12/30 03:34:34;;;;;;;12.13;2.20;;;;;;;4.27;100.00;100853.13;1265051;23;20356;-86
2022/12/30 03:35:06;;;;;;;11.57;2.30;;;;;;;4.29;100.00;100856.41;1259279;23;20330;-87
2022/12/30 03:35:44;;;;;;;12.10;2.67;;;;;;;4.25;100.00;100849.03;1259147;23;20278;-86